createdAt,value
2023-05-03T00:00:00.671Z,4.13
2023-05-03T00:00:12.759Z,3.63
2023-05-03T00:00:24.152Z,3.22
2023-05-03T00:00:35.628Z,2.90
2023-05-03T00:00:47.075Z,3.08
2023-05-03T00:00:58.494Z,2.90
2023-05-03T00:01:10.224Z,2.60
2023-05-03T00:01:21.729Z,2.80
2023-05-03T00:01:33.137Z,3.88
2023-05-03T00:01:44.563Z,5.00
2023-05-03T00:01:56.146Z,3.92
2023-05-03T00:02:07.624Z,4.05
2023-05-03T00:02:19.077Z,3.92
2023-05-03T00:02:30.621Z,4.55
2023-05-03T00:02:42.346Z,4.35
2023-05-03T00:02:53.801Z,3.45
2023-05-03T00:03:05.301Z,3.30
2023-05-03T00:03:16.700Z,3.95
2023-05-03T00:03:29.675Z,4.80
2023-05-03T00:03:41.147Z,5.47
2023-05-03T00:03:53.146Z,7.00
2023-05-03T00:04:04.845Z,4.60
2023-05-03T00:04:19.264Z,4.22
2023-05-03T00:04:31.108Z,4.63
2023-05-03T00:04:42.597Z,5.20
2023-05-03T00:04:54.266Z,3.53
2023-05-03T00:05:08.160Z,2.83
2023-05-03T00:05:20.114Z,2.75
2023-05-03T00:05:33.061Z,2.58
2023-05-03T00:05:44.487Z,4.25
2023-05-03T00:05:58.517Z,4.20
2023-05-03T00:06:14.334Z,3.63
2023-05-03T00:06:25.853Z,3.38
2023-05-03T00:06:37.390Z,6.32
2023-05-03T00:06:49.938Z,6.43
2023-05-03T00:07:01.391Z,3.70
2023-05-03T00:07:12.817Z,3.20
2023-05-03T00:07:24.185Z,3.38
2023-05-03T00:07:35.574Z,3.63
2023-05-03T00:07:47.008Z,4.22
2023-05-03T00:07:58.566Z,5.07
2023-05-03T00:08:09.926Z,5.22
2023-05-03T00:08:21.320Z,4.47
2023-05-03T00:08:32.785Z,5.03
2023-05-03T00:08:44.217Z,4.55
2023-05-03T00:08:55.632Z,3.70
2023-05-03T00:09:07.071Z,3.13
2023-05-03T00:09:18.523Z,3.47
2023-05-03T00:09:30.217Z,3.65
2023-05-03T00:09:41.622Z,3.28
2023-05-03T00:09:54.052Z,3.78
2023-05-03T00:10:06.107Z,7.18
2023-05-03T00:10:17.697Z,7.70
2023-05-03T00:10:29.139Z,4.50
2023-05-03T00:10:40.540Z,3.33
2023-05-03T00:10:59.155Z,4.38
2023-05-03T00:11:10.611Z,5.65
2023-05-03T00:11:22.097Z,4.70
2023-05-03T00:11:34.014Z,3.47
2023-05-03T00:11:45.432Z,4.07
2023-05-03T00:11:56.847Z,3.97
2023-05-03T00:12:08.573Z,4.75
2023-05-03T00:12:20.239Z,3.80
2023-05-03T00:12:31.950Z,4.00
2023-05-03T00:12:44.222Z,4.40
2023-05-03T00:12:55.593Z,6.07
2023-05-03T00:13:06.995Z,6.38
2023-05-03T00:13:18.310Z,5.45
2023-05-03T00:13:29.739Z,3.80
2023-05-03T00:13:41.178Z,4.05
2023-05-03T00:13:52.570Z,5.30
2023-05-03T00:14:03.979Z,4.78
2023-05-03T00:14:15.643Z,5.88
2023-05-03T00:14:27.656Z,5.82
2023-05-03T00:14:38.982Z,4.70
2023-05-03T00:14:50.378Z,4.35
2023-05-03T00:15:01.849Z,3.83
2023-05-03T00:15:13.281Z,3.47
2023-05-03T00:15:24.733Z,4.43
2023-05-03T00:15:36.078Z,4.85
2023-05-03T00:15:47.456Z,4.18
2023-05-03T00:15:58.882Z,4.63
2023-05-03T00:16:10.289Z,4.53
2023-05-03T00:16:21.728Z,5.80
2023-05-03T00:16:33.333Z,5.10
2023-05-03T00:16:44.701Z,5.05
2023-05-03T00:16:56.176Z,4.30
2023-05-03T00:17:07.574Z,3.75
2023-05-03T00:17:18.981Z,3.75
2023-05-03T00:17:30.436Z,4.03
2023-05-03T00:17:41.873Z,4.97
2023-05-03T00:17:53.396Z,5.32
2023-05-03T00:18:04.866Z,3.72
2023-05-03T00:18:16.372Z,3.30
2023-05-03T00:18:28.011Z,2.83
2023-05-03T00:18:39.424Z,2.92
2023-05-03T00:18:50.758Z,5.00
2023-05-03T00:19:02.200Z,6.10
2023-05-03T00:19:24.307Z,6.03
2023-05-03T00:19:42.312Z,3.08
2023-05-03T00:19:53.759Z,3.95
2023-05-03T00:20:06.498Z,5.22
2023-05-03T00:20:17.982Z,4.97
2023-05-03T00:20:29.373Z,4.18
2023-05-03T00:20:40.780Z,4.18
2023-05-03T00:20:52.689Z,3.72
2023-05-03T00:21:04.502Z,4.00
2023-05-03T00:21:16.046Z,3.90
2023-05-03T00:21:27.457Z,3.45
2023-05-03T00:21:38.793Z,3.00
2023-05-03T00:21:50.156Z,3.33
2023-05-03T00:22:01.559Z,4.03
2023-05-03T00:22:12.900Z,4.50
2023-05-03T00:22:24.361Z,6.32
2023-05-03T00:22:35.907Z,5.70
2023-05-03T00:22:47.313Z,5.00
2023-05-03T00:22:58.875Z,3.33
2023-05-03T00:23:10.222Z,3.35
2023-05-03T00:23:21.615Z,4.00
2023-05-03T00:23:33.147Z,3.75
2023-05-03T00:23:44.576Z,3.70
2023-05-03T00:23:55.953Z,4.28
2023-05-03T00:24:07.449Z,4.85
2023-05-03T00:24:18.850Z,3.92
2023-05-03T00:24:30.269Z,4.38
2023-05-03T00:24:41.697Z,4.00
2023-05-03T00:24:53.123Z,3.88
2023-05-03T00:25:04.983Z,3.25
2023-05-03T00:25:16.602Z,3.03
2023-05-03T00:25:28.019Z,3.35
2023-05-03T00:25:39.557Z,3.92
2023-05-03T00:25:58.281Z,4.50
2023-05-03T00:26:09.730Z,4.40
2023-05-03T00:26:21.429Z,4.18
2023-05-03T00:26:32.816Z,3.55
2023-05-03T00:26:44.205Z,3.28
2023-05-03T00:26:55.606Z,3.88
2023-05-03T00:27:07.029Z,3.85
2023-05-03T00:27:19.188Z,3.63
2023-05-03T00:27:30.640Z,3.40
2023-05-03T00:27:42.089Z,3.15
2023-05-03T00:27:53.520Z,3.10
2023-05-03T00:28:05.113Z,3.75
2023-05-03T00:28:16.572Z,4.35
2023-05-03T00:28:27.968Z,4.80
2023-05-03T00:28:39.458Z,4.53
2023-05-03T00:28:50.890Z,4.32
2023-05-03T00:29:02.384Z,4.40
2023-05-03T00:29:13.752Z,3.97
2023-05-03T00:29:25.161Z,3.63
2023-05-03T00:29:36.562Z,3.53
2023-05-03T00:29:51.100Z,3.33
2023-05-03T00:30:03.027Z,3.65
2023-05-03T00:30:14.774Z,4.38
2023-05-03T00:30:26.406Z,4.60
2023-05-03T00:30:37.784Z,4.22
2023-05-03T00:30:49.303Z,2.70
2023-05-03T00:31:10.948Z,4.47
2023-05-03T00:31:22.547Z,5.88
2023-05-03T00:31:35.461Z,3.40
2023-05-03T00:31:47.121Z,3.50
2023-05-03T00:31:58.597Z,3.22
2023-05-03T00:32:10.034Z,3.13
2023-05-03T00:32:22.134Z,5.40
2023-05-03T00:32:33.546Z,5.28
2023-05-03T00:32:45.036Z,4.30
2023-05-03T00:32:56.440Z,3.00
2023-05-03T00:33:08.024Z,2.97
2023-05-03T00:33:19.564Z,3.47
2023-05-03T00:33:30.959Z,6.50
2023-05-03T00:33:42.364Z,6.45
2023-05-03T00:33:53.876Z,4.80
2023-05-03T00:34:05.328Z,2.40
2023-05-03T00:34:16.730Z,3.65
2023-05-03T00:34:28.094Z,4.65
2023-05-03T00:34:39.525Z,4.53
2023-05-03T00:34:54.832Z,3.47
2023-05-03T00:35:06.809Z,3.63
2023-05-03T00:35:18.203Z,3.53
2023-05-03T00:35:29.595Z,2.88
2023-05-03T00:35:41.303Z,3.53
2023-05-03T00:35:52.662Z,3.65
2023-05-03T00:36:11.528Z,3.97
2023-05-03T00:36:22.872Z,3.60
2023-05-03T00:36:36.467Z,2.63
2023-05-03T00:36:48.526Z,2.88
2023-05-03T00:36:59.946Z,3.38
2023-05-03T00:37:11.490Z,3.17
2023-05-03T00:37:24.198Z,5.97
2023-05-03T00:37:37.060Z,6.07
2023-05-03T00:37:48.500Z,5.30
2023-05-03T00:38:00.133Z,3.33
2023-05-03T00:38:12.065Z,5.15
2023-05-03T00:38:23.609Z,5.70
2023-05-03T00:38:35.236Z,5.07
2023-05-03T00:38:46.885Z,3.58
2023-05-03T00:38:58.301Z,3.08
2023-05-03T00:39:09.654Z,3.85
2023-05-03T00:39:20.992Z,4.93
2023-05-03T00:39:32.583Z,4.82
2023-05-03T00:39:43.936Z,3.67
2023-05-03T00:39:55.427Z,4.43
2023-05-03T00:40:07.714Z,5.53
2023-05-03T00:40:19.103Z,4.65
2023-05-03T00:40:30.461Z,4.38
2023-05-03T00:40:41.844Z,3.80
2023-05-03T00:40:56.299Z,3.35
2023-05-03T00:41:10.131Z,3.45
2023-05-03T00:41:21.574Z,3.28
2023-05-03T00:41:33.001Z,4.05
2023-05-03T00:41:44.459Z,4.65
2023-05-03T00:41:59.950Z,4.15
2023-05-03T00:42:11.406Z,4.00
2023-05-03T00:42:22.856Z,5.25
2023-05-03T00:42:36.131Z,5.38
2023-05-03T00:42:47.512Z,6.60
2023-05-03T00:42:59.362Z,5.57
2023-05-03T00:43:12.159Z,3.92
2023-05-03T00:43:23.589Z,4.22
2023-05-03T00:43:35.168Z,4.25
2023-05-03T00:43:46.590Z,5.85
2023-05-03T00:43:58.010Z,6.63
2023-05-03T00:44:09.412Z,6.63
2023-05-03T00:44:20.825Z,4.65
2023-05-03T00:44:32.274Z,3.47
2023-05-03T00:44:43.794Z,3.38
2023-05-03T00:44:55.958Z,3.80
2023-05-03T00:45:08.127Z,4.28
2023-05-03T00:45:19.579Z,5.32
2023-05-03T00:45:33.385Z,5.68
2023-05-03T00:45:44.843Z,5.10
2023-05-03T00:46:08.293Z,5.18
2023-05-03T00:46:27.152Z,3.40
2023-05-03T00:46:38.673Z,4.38
2023-05-03T00:46:51.342Z,4.32
2023-05-03T00:47:03.513Z,4.35
2023-05-03T00:47:15.849Z,4.07
2023-05-03T00:47:27.487Z,3.88
2023-05-03T00:47:39.517Z,4.65
2023-05-03T00:47:51.059Z,4.30
2023-05-03T00:48:02.822Z,4.78
2023-05-03T00:48:14.368Z,4.10
2023-05-03T00:48:25.813Z,3.60
2023-05-03T00:48:37.593Z,3.55
2023-05-03T00:48:49.289Z,4.00
2023-05-03T00:49:01.306Z,4.25
2023-05-03T00:49:12.695Z,4.05
2023-05-03T00:49:24.971Z,4.55
2023-05-03T00:49:36.918Z,4.28
2023-05-03T00:49:48.445Z,4.18
2023-05-03T00:50:00.925Z,4.10
2023-05-03T00:50:12.958Z,3.83
2023-05-03T00:50:24.442Z,3.58
2023-05-03T00:50:36.864Z,3.90
2023-05-03T00:50:49.037Z,4.03
2023-05-03T00:51:03.425Z,5.35
2023-05-03T00:51:15.592Z,6.43
2023-05-03T00:51:27.977Z,6.47
2023-05-03T00:51:40.574Z,5.15
2023-05-03T00:51:53.484Z,4.50
2023-05-03T00:52:06.066Z,4.10
2023-05-03T00:52:17.698Z,4.05
2023-05-03T00:52:29.914Z,4.13
2023-05-03T00:52:41.839Z,3.80
2023-05-03T00:52:53.230Z,5.60
2023-05-03T00:53:04.656Z,5.97
2023-05-03T00:53:16.544Z,5.53
2023-05-03T00:53:29.006Z,4.10
2023-05-03T00:53:41.567Z,5.00
2023-05-03T00:53:52.974Z,4.90
2023-05-03T00:54:04.514Z,3.72
2023-05-03T00:54:16.390Z,3.78
2023-05-03T00:54:29.258Z,5.22
2023-05-03T00:54:40.797Z,4.95
2023-05-03T00:54:52.676Z,4.70
2023-05-03T00:55:04.884Z,4.13
2023-05-03T00:55:16.643Z,4.10
2023-05-03T00:55:29.513Z,4.18
2023-05-03T00:55:41.808Z,4.55
2023-05-03T00:55:54.079Z,4.95
2023-05-03T00:56:08.216Z,4.70
2023-05-03T00:56:20.344Z,4.13
2023-05-03T00:56:41.038Z,4.15
2023-05-03T00:57:04.970Z,4.50
2023-05-03T00:57:16.422Z,6.30
2023-05-03T00:57:29.499Z,6.13
2023-05-03T00:57:40.943Z,3.75
2023-05-03T00:57:52.343Z,4.78
2023-05-03T00:58:03.968Z,6.35
2023-05-03T00:58:15.579Z,6.30
2023-05-03T00:58:27.132Z,5.88
2023-05-03T00:58:38.811Z,4.80
2023-05-03T00:58:53.012Z,4.50
2023-05-03T00:59:06.000Z,4.18
2023-05-03T00:59:18.470Z,4.07
2023-05-03T00:59:29.937Z,4.82
2023-05-03T00:59:41.400Z,4.45
2023-05-03T00:59:53.097Z,4.07
2023-05-03T01:00:05.160Z,3.88
2023-05-03T01:00:16.934Z,4.68
2023-05-03T01:00:28.442Z,6.55
2023-05-03T01:00:39.883Z,7.88
2023-05-03T01:00:51.251Z,5.95
2023-05-03T01:01:02.692Z,4.78
2023-05-03T01:01:16.696Z,5.60
2023-05-03T01:01:28.192Z,6.10
2023-05-03T01:01:39.730Z,4.53
2023-05-03T01:01:52.769Z,4.75
2023-05-03T01:02:04.388Z,5.20
2023-05-03T01:02:15.928Z,5.20
2023-05-03T01:02:27.643Z,4.25
2023-05-03T01:02:39.256Z,4.57
2023-05-03T01:02:50.759Z,4.50
2023-05-03T01:03:02.351Z,4.90
2023-05-03T01:03:14.086Z,4.63
2023-05-03T01:03:25.715Z,4.50
2023-05-03T01:03:38.513Z,4.85
2023-05-03T01:03:50.149Z,5.00
2023-05-03T01:04:02.782Z,4.68
2023-05-03T01:04:14.574Z,4.57
2023-05-03T01:04:26.013Z,4.65
2023-05-03T01:04:38.061Z,4.80
2023-05-03T01:04:49.477Z,4.68
2023-05-03T01:05:00.914Z,4.20
2023-05-03T01:05:12.485Z,4.15
2023-05-03T01:05:25.009Z,4.20
2023-05-03T01:06:05.975Z,4.60
2023-05-03T01:06:29.432Z,3.75
2023-05-03T01:06:48.422Z,4.10
2023-05-03T01:07:02.907Z,4.55
2023-05-03T01:07:23.788Z,4.15
2023-05-03T01:07:50.387Z,4.47
2023-05-03T01:08:20.140Z,5.10
2023-05-03T01:09:18.084Z,6.35
2023-05-03T01:10:09.280Z,5.95
2023-05-03T01:10:38.300Z,5.50
2023-05-03T01:11:02.950Z,5.05
2023-05-03T01:11:17.469Z,4.25
2023-05-03T01:11:45.422Z,4.40
2023-05-03T01:12:20.739Z,3.67
2023-05-03T01:12:55.828Z,5.43
2023-05-03T01:13:24.773Z,6.10
2023-05-03T01:13:51.273Z,5.10
2023-05-03T01:14:17.227Z,4.22
2023-05-03T01:14:36.506Z,4.18
2023-05-03T01:14:58.610Z,4.35
2023-05-03T01:15:27.485Z,5.97
2023-05-03T01:15:49.688Z,3.67
2023-05-03T01:16:16.731Z,4.20
2023-05-03T01:16:39.708Z,4.13
2023-05-03T01:16:57.372Z,3.83
2023-05-03T01:17:12.064Z,5.90
2023-05-03T01:17:28.800Z,6.32
2023-05-03T01:17:47.916Z,4.10
2023-05-03T01:18:06.596Z,3.90
2023-05-03T01:18:21.096Z,4.00
2023-05-03T01:18:40.345Z,5.22
2023-05-03T01:18:54.924Z,6.47
2023-05-03T01:19:23.648Z,6.28
2023-05-03T01:19:50.333Z,4.85
2023-05-03T01:20:07.309Z,3.70
2023-05-03T01:20:22.998Z,4.15
2023-05-03T01:20:36.563Z,4.60
2023-05-03T01:20:50.087Z,4.35
2023-05-03T01:21:02.586Z,4.55
2023-05-03T01:21:16.271Z,4.57
2023-05-03T01:21:29.148Z,4.65
2023-05-03T01:21:45.145Z,4.97
2023-05-03T01:22:17.186Z,4.65
2023-05-03T01:22:58.216Z,4.43
2023-05-03T01:23:28.744Z,5.60
2023-05-03T01:23:46.117Z,3.53
2023-05-03T01:24:07.550Z,4.55
2023-05-03T01:24:23.964Z,4.93
2023-05-03T01:24:36.790Z,3.70
2023-05-03T01:24:55.008Z,3.45
2023-05-03T01:25:11.419Z,4.90
2023-05-03T01:25:22.867Z,5.35
2023-05-03T01:25:34.302Z,5.10
2023-05-03T01:25:45.715Z,4.32
2023-05-03T01:25:57.643Z,4.20
2023-05-03T01:26:29.338Z,5.85
2023-05-03T01:26:40.754Z,5.20
2023-05-03T01:26:52.196Z,5.10
2023-05-03T01:27:03.637Z,5.25
2023-05-03T01:27:15.088Z,4.15
2023-05-03T01:27:26.468Z,4.07
2023-05-03T01:27:39.174Z,4.60
2023-05-03T01:27:50.732Z,4.90
2023-05-03T01:28:02.193Z,4.20
2023-05-03T01:28:13.628Z,4.13
2023-05-03T01:28:25.160Z,3.92
2023-05-03T01:28:36.580Z,4.18
2023-05-03T01:28:48.214Z,4.05
2023-05-03T01:28:59.621Z,4.05
2023-05-03T01:29:11.553Z,4.03
2023-05-03T01:29:22.970Z,4.43
2023-05-03T01:29:34.594Z,4.47
2023-05-03T01:29:45.958Z,4.38
2023-05-03T01:29:57.337Z,5.63
2023-05-03T01:30:10.550Z,5.70
2023-05-03T01:30:25.357Z,3.75
2023-05-03T01:30:39.959Z,3.63
2023-05-03T01:30:52.832Z,3.72
2023-05-03T01:31:04.406Z,3.60
2023-05-03T01:31:23.119Z,3.90
2023-05-03T01:31:40.611Z,5.38
2023-05-03T01:32:01.386Z,4.03
2023-05-03T01:32:22.817Z,4.82
2023-05-03T01:32:52.804Z,4.22
2023-05-03T01:33:10.024Z,3.95
2023-05-03T01:33:33.496Z,4.32
2023-05-03T01:34:08.574Z,4.57
2023-05-03T01:34:26.451Z,3.72
2023-05-03T01:35:08.456Z,3.95
2023-05-03T01:35:50.377Z,4.32
2023-05-03T01:36:39.174Z,4.00
2023-05-03T01:36:53.908Z,4.00
2023-05-03T01:37:08.781Z,3.38
2023-05-03T01:37:21.456Z,3.45
2023-05-03T01:37:33.191Z,3.80
2023-05-03T01:37:44.717Z,4.13
2023-05-03T01:37:57.479Z,4.07
2023-05-03T01:38:11.350Z,5.00
2023-05-03T01:38:24.306Z,5.97
2023-05-03T01:38:37.886Z,5.13
2023-05-03T01:38:50.210Z,3.80
2023-05-03T01:39:07.851Z,3.80
2023-05-03T01:39:55.893Z,4.43
2023-05-03T01:40:09.268Z,6.00
2023-05-03T01:40:22.849Z,6.90
2023-05-03T01:40:42.031Z,6.82
2023-05-03T01:40:58.097Z,4.63
2023-05-03T01:41:12.901Z,4.93
2023-05-03T01:41:26.719Z,5.32
2023-05-03T01:41:41.736Z,4.40
2023-05-03T01:41:53.937Z,3.97
2023-05-03T01:42:05.640Z,4.95
2023-05-03T01:42:17.932Z,4.88
2023-05-03T01:42:30.227Z,3.35
2023-05-03T01:42:41.790Z,3.55
2023-05-03T01:42:55.505Z,3.63
2023-05-03T01:43:08.299Z,4.00
2023-05-03T01:43:21.373Z,3.92
2023-05-03T01:43:38.403Z,4.65
2023-05-03T01:43:52.572Z,5.38
2023-05-03T01:44:04.787Z,5.53
2023-05-03T01:44:16.481Z,4.72
2023-05-03T01:44:29.317Z,4.63
2023-05-03T01:44:42.248Z,3.58
2023-05-03T01:44:54.808Z,4.15
2023-05-03T01:45:07.189Z,5.10
2023-05-03T01:45:19.058Z,5.35
2023-05-03T01:45:30.826Z,4.40
2023-05-03T01:45:43.011Z,5.35
2023-05-03T01:45:54.501Z,5.32
2023-05-03T01:46:06.108Z,5.00
2023-05-03T01:46:17.618Z,4.82
2023-05-03T01:46:29.216Z,4.32
2023-05-03T01:46:44.626Z,3.97
2023-05-03T01:46:57.455Z,3.55
2023-05-03T01:47:09.203Z,3.53
2023-05-03T01:47:21.033Z,3.42
2023-05-03T01:47:32.526Z,3.75
2023-05-03T01:47:44.011Z,3.78
2023-05-03T01:47:56.657Z,3.72
2023-05-03T01:48:14.683Z,3.85
2023-05-03T01:48:27.172Z,4.10
2023-05-03T01:48:38.632Z,4.85
2023-05-03T01:48:50.171Z,6.25
2023-05-03T01:49:01.539Z,5.68
2023-05-03T01:49:13.339Z,4.60
2023-05-03T01:49:24.727Z,4.40
2023-05-03T01:49:36.234Z,4.07
2023-05-03T01:49:47.577Z,4.15
2023-05-03T01:49:58.939Z,6.60
2023-05-03T01:50:10.585Z,6.97
2023-05-03T01:50:22.063Z,6.60
2023-05-03T01:50:33.476Z,4.25
2023-05-03T01:50:45.202Z,3.92
2023-05-03T01:50:56.631Z,4.90
2023-05-03T01:51:10.572Z,4.72
2023-05-03T01:51:22.041Z,3.95
2023-05-03T01:51:33.573Z,3.55
2023-05-03T01:51:44.922Z,4.18
2023-05-03T01:51:56.335Z,4.32
2023-05-03T01:52:07.812Z,6.05
2023-05-03T01:52:19.227Z,6.25
2023-05-03T01:52:30.858Z,6.22
2023-05-03T01:52:42.239Z,3.20
2023-05-03T01:52:53.651Z,3.38
2023-05-03T01:53:05.075Z,3.42
2023-05-03T01:53:16.534Z,6.20
2023-05-03T01:53:27.879Z,6.13
2023-05-03T01:53:39.256Z,6.03
2023-05-03T01:53:50.670Z,3.70
2023-05-03T01:54:02.071Z,3.65
2023-05-03T01:54:13.499Z,4.68
2023-05-03T01:54:24.934Z,4.60
2023-05-03T01:54:36.369Z,4.13
2023-05-03T01:54:51.695Z,3.30
2023-05-03T01:55:03.248Z,4.03
2023-05-03T01:55:14.734Z,4.25
2023-05-03T01:55:26.162Z,5.15
2023-05-03T01:55:37.692Z,5.00
2023-05-03T01:55:49.115Z,4.93
2023-05-03T01:56:00.510Z,3.85
2023-05-03T01:56:11.886Z,5.18
2023-05-03T01:56:24.368Z,6.80
2023-05-03T01:56:37.420Z,6.20
2023-05-03T01:56:48.886Z,3.67
2023-05-03T01:57:00.324Z,3.33
2023-05-03T01:57:14.433Z,4.45
2023-05-03T01:57:26.066Z,5.20
2023-05-03T01:57:37.505Z,4.53
2023-05-03T01:57:48.894Z,5.07
2023-05-03T01:58:00.385Z,4.50
2023-05-03T01:58:12.160Z,4.25
2023-05-03T01:58:23.545Z,3.22
2023-05-03T01:58:34.948Z,3.30
2023-05-03T01:58:46.354Z,3.35
2023-05-03T01:58:57.808Z,3.50
2023-05-03T01:59:09.332Z,3.50
2023-05-03T01:59:20.813Z,6.18
2023-05-03T01:59:32.204Z,6.07
2023-05-03T01:59:43.611Z,5.90
2023-05-03T01:59:55.063Z,4.07
2023-05-03T02:00:07.006Z,3.92
2023-05-03T02:00:18.527Z,3.63
2023-05-03T02:00:30.018Z,4.00
2023-05-03T02:00:41.648Z,4.53
2023-05-03T02:00:53.146Z,4.53
2023-05-03T02:01:05.274Z,4.53
2023-05-03T02:01:16.836Z,4.35
2023-05-03T02:01:28.441Z,4.95
2023-05-03T02:01:40.003Z,4.90
2023-05-03T02:01:51.484Z,4.82
2023-05-03T02:02:02.814Z,4.25
2023-05-03T02:02:14.188Z,4.72
2023-05-03T02:02:25.643Z,4.75
2023-05-03T02:02:37.105Z,3.63
2023-05-03T02:02:48.875Z,3.72
2023-05-03T02:03:00.414Z,5.32
2023-05-03T02:03:11.973Z,7.05
2023-05-03T02:03:23.346Z,7.65
2023-05-03T02:03:34.786Z,6.65
2023-05-03T02:03:46.175Z,4.95
2023-05-03T02:03:57.672Z,4.32
2023-05-03T02:04:09.162Z,4.63
2023-05-03T02:04:20.570Z,4.80
2023-05-03T02:04:32.300Z,5.40
2023-05-03T02:04:43.760Z,6.18
2023-05-03T02:04:55.224Z,6.82
2023-05-03T02:05:06.876Z,5.57
2023-05-03T02:05:18.445Z,6.63
2023-05-03T02:05:29.815Z,5.93
2023-05-03T02:05:41.211Z,5.88
2023-05-03T02:05:52.637Z,4.43
2023-05-03T02:06:04.187Z,4.90
2023-05-03T02:06:15.636Z,4.40
2023-05-03T02:06:27.157Z,3.72
2023-05-03T02:06:38.579Z,3.85
2023-05-03T02:06:50.093Z,4.28
2023-05-03T02:07:01.601Z,4.60
2023-05-03T02:07:13.022Z,4.45
2023-05-03T02:07:24.518Z,4.38
2023-05-03T02:07:36.006Z,3.80
2023-05-03T02:07:47.432Z,3.45
2023-05-03T02:07:58.943Z,3.28
2023-05-03T02:08:10.365Z,3.45
2023-05-03T02:08:21.731Z,3.70
2023-05-03T02:08:33.164Z,4.40
2023-05-03T02:08:44.579Z,4.70
2023-05-03T02:08:55.996Z,4.82
2023-05-03T02:09:07.309Z,5.00
2023-05-03T02:09:18.801Z,4.93
2023-05-03T02:09:30.246Z,4.75
2023-05-03T02:09:41.669Z,4.35
2023-05-03T02:09:53.032Z,4.53
2023-05-03T02:10:06.448Z,4.35
2023-05-03T02:10:17.904Z,4.03
2023-05-03T02:10:29.322Z,3.83
2023-05-03T02:10:44.376Z,3.80
2023-05-03T02:10:55.893Z,3.97
2023-05-03T02:11:07.246Z,3.90
2023-05-03T02:11:18.701Z,3.63
2023-05-03T02:11:30.073Z,3.65
2023-05-03T02:11:41.482Z,4.03
2023-05-03T02:11:52.829Z,4.20
2023-05-03T02:12:04.398Z,4.07
2023-05-03T02:12:15.784Z,4.57
2023-05-03T02:12:27.127Z,5.15
2023-05-03T02:12:38.511Z,5.57
2023-05-03T02:12:49.976Z,5.05
2023-05-03T02:13:01.376Z,4.35
2023-05-03T02:13:12.761Z,4.28
2023-05-03T02:13:24.155Z,4.28
2023-05-03T02:13:38.008Z,4.43
2023-05-03T02:13:49.803Z,4.75
2023-05-03T02:14:01.236Z,4.53
2023-05-03T02:14:12.641Z,4.43
2023-05-03T02:14:24.199Z,4.25
2023-05-03T02:14:35.634Z,4.38
2023-05-03T02:14:47.045Z,4.20
2023-05-03T02:14:58.481Z,4.93
2023-05-03T02:15:10.836Z,4.65
2023-05-03T02:15:22.227Z,5.03
2023-05-03T02:15:33.703Z,5.35
2023-05-03T02:15:45.098Z,5.43
2023-05-03T02:15:56.530Z,5.38
2023-05-03T02:16:07.962Z,5.15
2023-05-03T02:16:19.988Z,4.95
2023-05-03T02:16:31.488Z,4.25
2023-05-03T02:16:43.001Z,4.55
2023-05-03T02:16:54.396Z,4.05
2023-05-03T02:17:05.819Z,4.22
2023-05-03T02:17:17.216Z,4.40
2023-05-03T02:17:29.104Z,4.55
2023-05-03T02:17:42.341Z,5.40
2023-05-03T02:17:53.816Z,5.10
2023-05-03T02:18:05.286Z,4.30
2023-05-03T02:18:16.872Z,4.25
2023-05-03T02:18:28.301Z,4.57
2023-05-03T02:18:39.683Z,4.88
2023-05-03T02:18:51.047Z,4.47
2023-05-03T02:19:02.425Z,4.10
2023-05-03T02:19:15.316Z,4.05
2023-05-03T02:19:26.688Z,4.38
2023-05-03T02:19:38.038Z,5.20
2023-05-03T02:19:49.396Z,5.57
2023-05-03T02:20:01.098Z,5.18
2023-05-03T02:20:13.115Z,4.55
2023-05-03T02:20:24.531Z,4.18
2023-05-03T02:20:35.990Z,4.30
2023-05-03T02:20:47.793Z,4.30
2023-05-03T02:20:59.269Z,3.90
2023-05-03T02:21:11.084Z,4.78
2023-05-03T02:21:22.854Z,4.75
2023-05-03T02:21:35.048Z,4.65
2023-05-03T02:21:46.479Z,8.10
2023-05-03T02:21:57.989Z,9.07
2023-05-03T02:22:09.463Z,7.07
2023-05-03T02:22:20.943Z,6.72
2023-05-03T02:22:33.188Z,5.43
2023-05-03T02:22:44.609Z,5.10
2023-05-03T02:22:55.964Z,4.65
2023-05-03T02:23:07.360Z,4.70
2023-05-03T02:23:18.760Z,4.05
2023-05-03T02:23:30.195Z,4.88
2023-05-03T02:23:41.646Z,5.47
2023-05-03T02:23:53.116Z,5.95
2023-05-03T02:24:05.017Z,5.18
2023-05-03T02:24:16.450Z,4.78
2023-05-03T02:24:27.866Z,4.90
2023-05-03T02:24:39.337Z,5.07
2023-05-03T02:24:50.778Z,5.07
2023-05-03T02:25:02.114Z,4.80
2023-05-03T02:25:14.693Z,5.03
2023-05-03T02:25:27.586Z,4.88
2023-05-03T02:25:39.752Z,3.83
2023-05-03T02:25:51.288Z,3.63
2023-05-03T02:26:02.814Z,3.90
2023-05-03T02:26:14.198Z,4.75
2023-05-03T02:26:25.615Z,5.20
2023-05-03T02:26:37.150Z,4.65
2023-05-03T02:26:48.598Z,3.97
2023-05-03T02:27:00.012Z,4.10
2023-05-03T02:27:11.464Z,4.28
2023-05-03T02:27:22.824Z,3.70
2023-05-03T02:27:34.239Z,3.83
2023-05-03T02:27:45.658Z,4.07
2023-05-03T02:27:57.209Z,5.10
2023-05-03T02:28:08.773Z,5.40
2023-05-03T02:28:20.181Z,5.05
2023-05-03T02:28:31.624Z,5.07
2023-05-03T02:28:43.074Z,4.90
2023-05-03T02:28:54.687Z,4.88
2023-05-03T02:29:06.087Z,4.22
2023-05-03T02:29:17.524Z,5.50
2023-05-03T02:29:29.000Z,5.07
2023-05-03T02:29:40.445Z,4.95
2023-05-03T02:29:54.185Z,3.80
2023-05-03T02:30:06.629Z,4.10
2023-05-03T02:30:18.373Z,4.53
2023-05-03T02:30:29.740Z,6.03
2023-05-03T02:30:41.975Z,7.00
2023-05-03T02:30:53.740Z,7.55
2023-05-03T02:31:06.304Z,7.75
2023-05-03T02:31:18.003Z,5.95
2023-05-03T02:31:29.495Z,3.95
2023-05-03T02:31:40.863Z,4.78
2023-05-03T02:31:52.375Z,4.95
2023-05-03T02:32:03.819Z,5.57
2023-05-03T02:32:15.504Z,5.20
2023-05-03T02:32:26.876Z,4.28
2023-05-03T02:32:38.352Z,5.38
2023-05-03T02:32:49.868Z,6.30
2023-05-03T02:33:01.448Z,7.97
2023-05-03T02:33:12.865Z,7.88
2023-05-03T02:33:24.391Z,8.45
2023-05-03T02:33:35.742Z,5.88
2023-05-03T02:33:47.135Z,4.95
2023-05-03T02:33:58.511Z,4.20
2023-05-03T02:34:09.941Z,4.78
2023-05-03T02:34:21.579Z,4.80
2023-05-03T02:34:33.142Z,5.18
2023-05-03T02:34:47.284Z,4.72
2023-05-03T02:34:58.700Z,4.97
2023-05-03T02:35:10.387Z,4.80
2023-05-03T02:35:21.749Z,4.57
2023-05-03T02:35:33.392Z,4.80
2023-05-03T02:35:44.867Z,5.50
2023-05-03T02:35:56.365Z,5.13
2023-05-03T02:36:07.964Z,4.53
2023-05-03T02:36:19.304Z,4.38
2023-05-03T02:36:30.712Z,4.35
2023-05-03T02:36:42.156Z,5.10
2023-05-03T02:36:53.771Z,5.60
2023-05-03T02:37:05.199Z,4.90
2023-05-03T02:37:16.670Z,4.95
2023-05-03T02:37:28.122Z,4.47
2023-05-03T02:37:39.486Z,5.10
2023-05-03T02:37:50.867Z,5.13
2023-05-03T02:38:02.268Z,4.90
2023-05-03T02:38:13.778Z,5.13
2023-05-03T02:38:25.206Z,4.68
2023-05-03T02:38:36.678Z,4.88
2023-05-03T02:38:48.126Z,4.90
2023-05-03T02:38:59.558Z,4.35
2023-05-03T02:39:11.020Z,4.72
2023-05-03T02:39:22.491Z,6.88
2023-05-03T02:39:33.916Z,7.32
2023-05-03T02:39:45.264Z,7.38
2023-05-03T02:39:56.785Z,5.93
2023-05-03T02:40:09.840Z,5.43
2023-05-03T02:40:21.272Z,5.68
2023-05-03T02:40:32.728Z,6.10
2023-05-03T02:40:45.622Z,6.25
2023-05-03T02:40:57.142Z,5.13
2023-05-03T02:41:08.601Z,4.90
2023-05-03T02:41:20.020Z,5.80
2023-05-03T02:41:31.409Z,6.03
2023-05-03T02:41:42.843Z,5.78
2023-05-03T02:41:54.244Z,5.25
2023-05-03T02:42:05.649Z,5.25
2023-05-03T02:42:16.991Z,5.53
2023-05-03T02:42:28.425Z,5.15
2023-05-03T02:42:40.738Z,4.78
2023-05-03T02:42:52.266Z,5.80
2023-05-03T02:43:03.674Z,6.32
2023-05-03T02:43:15.064Z,6.30
2023-05-03T02:43:28.043Z,5.32
2023-05-03T02:43:40.556Z,5.57
2023-05-03T02:43:51.986Z,5.93
2023-05-03T02:44:03.528Z,6.05
2023-05-03T02:44:15.046Z,5.85
2023-05-03T02:44:26.422Z,6.57
2023-05-03T02:44:38.254Z,7.30
2023-05-03T02:44:49.649Z,7.03
2023-05-03T02:45:01.045Z,5.88
2023-05-03T02:45:12.526Z,6.25
2023-05-03T02:45:24.027Z,6.32
2023-05-03T02:45:36.203Z,6.10
2023-05-03T02:45:47.661Z,4.88
2023-05-03T02:45:59.106Z,6.55
2023-05-03T02:46:10.550Z,6.60
2023-05-03T02:46:22.000Z,5.22
2023-05-03T02:46:33.515Z,5.22
2023-05-03T02:46:45.011Z,5.35
2023-05-03T02:46:56.335Z,4.80
2023-05-03T02:47:07.656Z,4.45
2023-05-03T02:47:19.097Z,4.68
2023-05-03T02:47:31.083Z,5.45
2023-05-03T02:47:42.630Z,5.72
2023-05-03T02:47:54.094Z,4.65
2023-05-03T02:48:05.787Z,5.78
2023-05-03T02:48:17.361Z,5.78
2023-05-03T02:48:28.763Z,5.57
2023-05-03T02:48:40.142Z,4.63
2023-05-03T02:48:51.482Z,6.57
2023-05-03T02:49:02.898Z,8.35
2023-05-03T02:49:14.420Z,8.50
2023-05-03T02:49:25.785Z,5.40
2023-05-03T02:49:37.206Z,5.55
2023-05-03T02:49:50.919Z,5.38
2023-05-03T02:50:02.505Z,5.03
2023-05-03T02:50:14.071Z,5.20
2023-05-03T02:50:25.530Z,6.22
2023-05-03T02:50:36.945Z,6.28
2023-05-03T02:50:48.511Z,6.05
2023-05-03T02:50:59.961Z,5.00
2023-05-03T02:51:11.420Z,5.65
2023-05-03T02:51:22.953Z,5.50
2023-05-03T02:51:35.452Z,7.15
2023-05-03T02:51:46.866Z,7.05
2023-05-03T02:51:58.268Z,7.50
2023-05-03T02:52:09.718Z,5.40
2023-05-03T02:52:21.051Z,4.57
2023-05-03T02:52:32.423Z,4.82